Time;durP1;ratioP1;P1;durP2;ratioP2;P2;SDS_P1;SDS_P2;PMS_P1;PMS_P2;Temp;Humidity;BMP_temperature;BMP_pressure;BME280_temperature;BME280_humidity;BME280_pressure;Samples;Min_cycle;Max_cycle;Signal;HPM_P1;HPM_P2
2023/12/22 00:00:30;;;;;;;;;;;;;;;;;;5019581;28;20407;-53
2023/12/22 00:02:56;;;;;;;;;;;;;;;;;;5026919;28;19921;-53
2023/12/22 00:05:22;;;;;;;;;;;;;;;;;;5030446;28;19917;-53
2023/12/22 00:07:48;;;;;;;;;;;;;;;;;;5032333;28;19952;-52
2023/12/22 00:10:14;;;;;;;;;;;;;;;;;;5032159;28;20313;-53
2023/12/22 00:12:40;;;;;;;;;;;;;;;;;;5032383;28;20052;-52
2023/12/22 00:15:06;;;;;;;;;;;;;;;;;;5016795;28;20265;-53
2023/12/22 00:17:32;;;;;;;;;;;;;;;;;;5031424;28;19917;-53
2023/12/22 00:20:02;;;;;;;;;;;;;;;;;;5032063;28;19916;-52
2023/12/22 00:22:28;;;;;;;;;;;;;;;;;;5032618;28;20400;-52
2023/12/22 00:24:54;;;;;;;;;;;;;;;;;;5032198;28;19979;-54
2023/12/22 00:27:20;;;;;;;;;;;;;;;;;;5031608;28;19964;-54
2023/12/22 00:29:46;;;;;;;;;;;;;;;;;;5031634;28;19975;-54
2023/12/22 00:32:12;;;;;;;;;;;;;;;;;;5031963;28;20036;-53
2023/12/22 00:34:38;;;;;;;;;;;;;;;;;;5029060;28;19964;-55
2023/12/22 00:37:04;;;;;;;;;;;;;;;;;;5031506;28;19913;-54
2023/12/22 00:39:31;;;;;;;;;;;;;;;;;;5017640;28;19917;-53
2023/12/22 00:41:56;;;;;;;;;;;;;;;;;;5031433;28;19963;-53
2023/12/22 00:44:23;;;;;;;;;;;;;;;;;;5018067;28;20350;-54
2023/12/22 00:46:49;;;;;;;;;;;;;;;;;;5027910;28;19909;-54
2023/12/22 00:49:15;;;;;;;;;;;;;;;;;;5032456;28;19924;-54
2023/12/22 00:51:41;;;;;;;;;;;;;;;;;;5030900;28;20357;-53
2023/12/22 00:54:07;;;;;;;;;;;;;;;;;;5031416;28;19983;-54
2023/12/22 00:56:33;;;;;;;;;;;;;;;;;;5031896;28;20376;-54
2023/12/22 00:58:59;;;;;;;;;;;;;;;;;;5034763;28;19947;-54
2023/12/22 01:01:24;;;;;;;;;;;;;;;;;;5029675;28;19952;-55
2023/12/22 01:03:50;;;;;;;;;;;;;;;;;;5029127;28;19960;-55
2023/12/22 01:06:17;;;;;;;;;;;;;;;;;;5028291;28;19967;-55
2023/12/22 01:08:43;;;;;;;;;;;;;;;;;;5031404;28;19913;-55
2023/12/22 01:11:09;;;;;;;;;;;;;;;;;;5030849;28;19925;-55
2023/12/22 01:13:35;;;;;;;;;;;;;;;;;;5032399;28;20004;-55
2023/12/22 01:16:01;;;;;;;;;;;;;;;;;;5029863;28;19964;-54
2023/12/22 01:18:29;;;;;;;;;;;;;;;;;;5029943;28;19974;-54
2023/12/22 01:20:55;;;;;;;;;;;;;;;;;;5031367;28;20002;-54
2023/12/22 01:23:21;;;;;;;;;;;;;;;;;;5030682;28;20295;-54
2023/12/22 01:25:47;;;;;;;;;;;;;;;;;;5031155;28;20305;-54
2023/12/22 01:28:13;;;;;;;;;;;;;;;;;;5030489;28;20372;-54
2023/12/22 01:30:39;;;;;;;;;;;;;;;;;;5035701;28;19968;-54
2023/12/22 01:33:05;;;;;;;;;;;;;;;;;;5028687;28;19921;-54
2023/12/22 01:35:31;;;;;;;;;;;;;;;;;;5030166;28;20014;-53
2023/12/22 01:37:57;;;;;;;;;;;;;;;;;;5030564;28;19952;-52
2023/12/22 01:40:23;;;;;;;;;;;;;;;;;;5030952;28;20036;-53
2023/12/22 01:42:49;;;;;;;;;;;;;;;;;;5029177;28;20371;-52
2023/12/22 01:45:15;;;;;;;;;;;;;;;;;;5028576;28;20403;-52
2023/12/22 01:47:41;;;;;;;;;;;;;;;;;;5030635;28;19959;-53
2023/12/22 01:50:07;;;;;;;;;;;;;;;;;;5030230;28;19975;-52
2023/12/22 01:52:33;;;;;;;;;;;;;;;;;;5030446;28;19921;-52
2023/12/22 01:54:59;;;;;;;;;;;;;;;;;;5030611;28;19971;-52
2023/12/22 01:57:25;;;;;;;;;;;;;;;;;;5029986;28;20000;-52
2023/12/22 01:59:52;;;;;;;;;;;;;;;;;;5031146;28;20018;-53
2023/12/22 02:02:18;;;;;;;;;;;;;;;;;;5025075;28;19913;-53
2023/12/22 02:04:44;;;;;;;;;;;;;;;;;;5026903;28;20280;-53
2023/12/22 02:07:10;;;;;;;;;;;;;;;;;;5030840;28;19913;-53
2023/12/22 02:09:37;;;;;;;;;;;;;;;;;;5031169;28;19921;-52
2023/12/22 02:12:03;;;;;;;;;;;;;;;;;;5033834;28;19913;-53
2023/12/22 02:14:29;;;;;;;;;;;;;;;;;;5026747;28;20046;-53
2023/12/22 02:16:54;;;;;;;;;;;;;;;;;;5035225;28;20630;-53
2023/12/22 02:19:20;;;;;;;;;;;;;;;;;;5029402;28;20387;-53
2023/12/22 02:21:46;;;;;;;;;;;;;;;;;;5027573;28;19964;-52
2023/12/22 02:24:12;;;;;;;;;;;;;;;;;;5027600;28;19960;-53
2023/12/22 02:26:38;;;;;;;;;;;;;;;;;;5027299;28;19972;-52
2023/12/22 02:29:04;;;;;;;;;;;;;;;;;;5029095;28;19979;-52
2023/12/22 02:31:30;;;;;;;;;;;;;;;;;;5026743;28;20448;-53
2023/12/22 02:33:56;;;;;;;;;;;;;;;;;;5027848;28;19957;-53
2023/12/22 02:36:22;;;;;;;;;;;;;;;;;;5032065;28;20056;-52
2023/12/22 02:38:48;;;;;;;;;;;;;;;;;;5029680;28;20320;-53
2023/12/22 02:41:14;;;;;;;;;;;;;;;;;;5029945;28;20396;-53
2023/12/22 02:43:40;;;;;;;;;;;;;;;;;;5023801;28;19948;-53
2023/12/22 02:46:06;;;;;;;;;;;;;;;;;;5029457;28;20290;-53
2023/12/22 02:48:32;;;;;;;;;;;;;;;;;;5039975;28;19952;-53
2023/12/22 02:50:58;;;;;;;;;;;;;;;;;;5033082;28;19947;-53
2023/12/22 02:53:25;;;;;;;;;;;;;;;;;;5030161;28;19960;-53
2023/12/22 02:55:50;;;;;;;;;;;;;;;;;;5029929;28;19944;-53
2023/12/22 02:58:16;;;;;;;;;;;;;;;;;;5025266;28;19948;-53
2023/12/22 03:00:42;;;;;;;;;;;;;;;;;;5019625;28;19944;-53
2023/12/22 03:03:08;;;;;;;;;;;;;;;;;;5028659;28;20361;-53
2023/12/22 03:05:34;;;;;;;;;;;;;;;;;;5029695;28;19947;-53
2023/12/22 03:08:00;;;;;;;;;;;;;;;;;;5030648;28;19952;-53
2023/12/22 03:10:26;;;;;;;;;;;;;;;;;;5030613;28;20006;-52
2023/12/22 03:12:52;;;;;;;;;;;;;;;;;;5027580;28;19959;-53
2023/12/22 03:15:18;;;;;;;;;;;;;;;;;;5034480;28;19967;-53
2023/12/22 03:17:44;;;;;;;;;;;;;;;;;;5025487;28;20012;-53
2023/12/22 03:20:10;;;;;;;;;;;;;;;;;;5025779;28;19960;-53
2023/12/22 03:22:36;;;;;;;;;;;;;;;;;;5028059;28;20010;-53
2023/12/22 03:25:02;;;;;;;;;;;;;;;;;;5028547;28;19952;-53
2023/12/22 03:27:28;;;;;;;;;;;;;;;;;;5029701;28;19953;-53
2023/12/22 03:29:54;;;;;;;;;;;;;;;;;;5027869;28;20328;-53
2023/12/22 03:32:20;;;;;;;;;;;;;;;;;;5024388;28;19956;-53
2023/12/22 03:34:46;;;;;;;;;;;;;;;;;;5027428;28;20059;-53
2023/12/22 03:37:12;;;;;;;;;;;;;;;;;;5033333;28;20618;-53
2023/12/22 03:39:38;;;;;;;;;;;;;;;;;;5029701;28;19999;-53
2023/12/22 03:42:04;;;;;;;;;;;;;;;;;;5029109;28;19957;-53
2023/12/22 03:44:30;;;;;;;;;;;;;;;;;;5022809;28;19949;-53
2023/12/22 03:46:56;;;;;;;;;;;;;;;;;;5030411;28;20016;-55
2023/12/22 03:49:22;;;;;;;;;;;;;;;;;;5031013;28;20268;-55
2023/12/22 03:51:48;;;;;;;;;;;;;;;;;;5029928;28;19983;-54
2023/12/22 03:54:17;;;;;;;;;;;;;;;;;;5025718;28;19956;-55
2023/12/22 03:56:43;;;;;;;;;;;;;;;;;;5026364;28;20452;-54
2023/12/22 03:59:08;;;;;;;;;;;;;;;;;;5025261;28;20007;-55
2023/12/22 04:01:34;;;;;;;;;;;;;;;;;;5014780;28;19941;-54
2023/12/22 04:04:00;;;;;;;;;;;;;;;;;;5026656;28;19960;-54
2023/12/22 04:06:26;;;;;;;;;;;;;;;;;;5032038;28;19944;-54
2023/12/22 04:08:52;;;;;;;;;;;;;;;;;;5030248;28;20353;-55
2023/12/22 04:11:18;;;;;;;;;;;;;;;;;;5029158;28;19959;-55
2023/12/22 04:13:44;;;;;;;;;;;;;;;;;;5023567;28;20402;-55
2023/12/22 04:16:10;;;;;;;;;;;;;;;;;;5020804;28;20320;-54
2023/12/22 04:18:36;;;;;;;;;;;;;;;;;;5025335;28;20397;-54
2023/12/22 04:21:02;;;;;;;;;;;;;;;;;;5028813;28;19985;-55
2023/12/22 04:23:28;;;;;;;;;;;;;;;;;;5028897;28;19917;-55
2023/12/22 04:25:54;;;;;;;;;;;;;;;;;;5028663;28;19967;-54
2023/12/22 04:28:20;;;;;;;;;;;;;;;;;;5027189;28;19960;-54
2023/12/22 04:30:46;;;;;;;;;;;;;;;;;;5023436;28;20005;-54
2023/12/22 04:33:12;;;;;;;;;;;;;;;;;;5029185;28;19959;-54
2023/12/22 04:35:38;;;;;;;;;;;;;;;;;;5027337;28;20359;-54
2023/12/22 04:38:03;;;;;;;;;;;;;;;;;;5026276;28;20372;-53
2023/12/22 04:40:29;;;;;;;;;;;;;;;;;;5028406;28;19967;-55
2023/12/22 04:42:55;;;;;;;;;;;;;;;;;;5024162;28;19955;-53
2023/12/22 04:45:21;;;;;;;;;;;;;;;;;;5028144;28;19975;-54
2023/12/22 04:47:47;;;;;;;;;;;;;;;;;;5028453;28;20483;-54
2023/12/22 04:50:13;;;;;;;;;;;;;;;;;;5031410;28;20038;-55
2023/12/22 04:52:39;;;;;;;;;;;;;;;;;;5031842;28;19995;-54
2023/12/22 04:55:05;;;;;;;;;;;;;;;;;;5031632;28;20012;-52
2023/12/22 04:57:31;;;;;;;;;;;;;;;;;;5031648;28;19913;-52
2023/12/22 04:59:57;;;;;;;;;;;;;;;;;;5030279;28;20012;-52
2023/12/22 05:02:23;;;;;;;;;;;;;;;;;;5030579;28;19952;-52
2023/12/22 05:04:49;;;;;;;;;;;;;;;;;;5027691;28;19964;-52
2023/12/22 05:07:15;;;;;;;;;;;;;;;;;;5025261;28;20385;-52
2023/12/22 05:09:41;;;;;;;;;;;;;;;;;;5031173;28;19939;-53
2023/12/22 05:12:07;;;;;;;;;;;;;;;;;;5036265;28;19967;-53
2023/12/22 05:14:33;;;;;;;;;;;;;;;;;;5034686;28;19968;-53
2023/12/22 05:16:59;;;;;;;;;;;;;;;;;;5029933;28;19952;-53
2023/12/22 05:19:25;;;;;;;;;;;;;;;;;;5030362;28;19959;-54
2023/12/22 05:21:52;;;;;;;;;;;;;;;;;;5031587;28;20353;-54
2023/12/22 05:24:18;;;;;;;;;;;;;;;;;;5030282;28;20364;-54
2023/12/22 05:26:44;;;;;;;;;;;;;;;;;;5031209;28;20026;-54
2023/12/22 05:29:12;;;;;;;;;;;;;;;;;;5029539;28;19921;-54
2023/12/22 05:31:38;;;;;;;;;;;;;;;;;;5029529;28;20399;-54
2023/12/22 05:34:04;;;;;;;;;;;;;;;;;;5030987;28;19956;-54
2023/12/22 05:36:30;;;;;;;;;;;;;;;;;;5029596;28;19996;-54
2023/12/22 05:38:56;;;;;;;;;;;;;;;;;;5031857;28;19957;-53
2023/12/22 05:41:22;;;;;;;;;;;;;;;;;;5030615;28;19948;-53
2023/12/22 05:43:48;;;;;;;;;;;;;;;;;;5031985;28;20552;-54
2023/12/22 05:46:14;;;;;;;;;;;;;;;;;;5034241;28;19924;-53
2023/12/22 05:48:40;;;;;;;;;;;;;;;;;;5030302;28;19923;-54
2023/12/22 05:51:13;;;;;;;;;;;;;;;;;;5030212;28;19949;-53
2023/12/22 05:53:39;;;;;;;;;;;;;;;;;;5030482;28;19913;-53
2023/12/22 05:56:04;;;;;;;;;;;;;;;;;;5030314;28;19917;-53
2023/12/22 05:58:30;;;;;;;;;;;;;;;;;;5028483;28;20368;-54
2023/12/22 06:00:56;;;;;;;;;;;;;;;;;;5029729;28;19952;-53
2023/12/22 06:03:22;;;;;;;;;;;;;;;;;;5028261;28;20046;-53
2023/12/22 06:05:48;;;;;;;;;;;;;;;;;;5028495;28;19917;-53
2023/12/22 06:08:14;;;;;;;;;;;;;;;;;;5029387;28;19977;-53
2023/12/22 06:10:40;;;;;;;;;;;;;;;;;;5015608;28;20260;-53
2023/12/22 06:13:06;;;;;;;;;;;;;;;;;;5028921;28;20415;-53
2023/12/22 06:15:32;;;;;;;;;;;;;;;;;;5029263;28;19952;-53
2023/12/22 06:17:58;;;;;;;;;;;;;;;;;;5009702;28;20207;-53
2023/12/22 06:20:24;;;;;;;;;;;;;;;;;;5029321;28;19983;-53
2023/12/22 06:22:50;;;;;;;;;;;;;;;;;;5029663;28;19957;-53
2023/12/22 06:25:16;;;;;;;;;;;;;;;;;;5029261;28;19960;-53
2023/12/22 06:27:42;;;;;;;;;;;;;;;;;;5029054;28;19953;-53
2023/12/22 06:30:08;;;;;;;;;;;;;;;;;;5028748;28;19967;-53
2023/12/22 06:32:34;;;;;;;;;;;;;;;;;;5028592;28;19991;-53
2023/12/22 06:35:00;;;;;;;;;;;;;;;;;;5028496;28;19968;-53
2023/12/22 06:37:26;;;;;;;;;;;;;;;;;;5029110;28;20012;-53
2023/12/22 06:39:52;;;;;;;;;;;;;;;;;;5029139;28;20336;-53
2023/12/22 06:42:18;;;;;;;;;;;;;;;;;;5028806;28;19937;-53
2023/12/22 06:44:44;;;;;;;;;;;;;;;;;;5027738;28;19964;-53
2023/12/22 06:47:10;;;;;;;;;;;;;;;;;;5027896;28;20388;-53
2023/12/22 06:49:36;;;;;;;;;;;;;;;;;;5015145;28;20661;-53
2023/12/22 06:52:02;;;;;;;;;;;;;;;;;;5029624;28;19958;-53
2023/12/22 06:54:29;;;;;;;;;;;;;;;;;;5028344;28;19979;-53
2023/12/22 06:56:55;;;;;;;;;;;;;;;;;;5028634;28;19966;-53
2023/12/22 06:59:21;;;;;;;;;;;;;;;;;;5016036;28;19991;-53
2023/12/22 07:01:47;;;;;;;;;;;;;;;;;;5026598;28;19980;-53
2023/12/22 07:04:13;;;;;;;;;;;;;;;;;;5026768;28;19956;-53
2023/12/22 07:06:40;;;;;;;;;;;;;;;;;;5028555;28;20350;-53
2023/12/22 07:09:06;;;;;;;;;;;;;;;;;;5028171;28;19944;-52
2023/12/22 07:11:32;;;;;;;;;;;;;;;;;;5028646;28;19917;-52
2023/12/22 07:13:58;;;;;;;;;;;;;;;;;;5028178;28;20019;-53
2023/12/22 07:16:24;;;;;;;;;;;;;;;;;;5026996;28;20044;-53
2023/12/22 07:18:50;;;;;;;;;;;;;;;;;;5026993;28;19960;-53
2023/12/22 07:21:16;;;;;;;;;;;;;;;;;;5029176;28;19992;-53
2023/12/22 07:23:44;;;;;;;;;;;;;;;;;;5027997;28;20146;-53
2023/12/22 07:26:09;;;;;;;;;;;;;;;;;;5027367;28;20022;-53
2023/12/22 07:28:35;;;;;;;;;;;;;;;;;;5026879;28;19972;-53
2023/12/22 07:31:01;;;;;;;;;;;;;;;;;;5026199;28;19975;-53
2023/12/22 07:33:28;;;;;;;;;;;;;;;;;;5021937;28;19921;-53
2023/12/22 07:35:54;;;;;;;;;;;;;;;;;;5025998;28;20294;-53
2023/12/22 07:38:20;;;;;;;;;;;;;;;;;;5027258;28;19987;-50
2023/12/22 07:40:46;;;;;;;;;;;;;;;;;;5027387;28;20471;-52
2023/12/22 07:43:13;;;;;;;;;;;;;;;;;;5028427;28;19960;-50
2023/12/22 07:45:39;;;;;;;;;;;;;;;;;;5028031;28;20011;-51
2023/12/22 07:48:04;;;;;;;;;;;;;;;;;;5025700;28;19972;-53
2023/12/22 07:50:30;;;;;;;;;;;;;;;;;;5026810;28;20359;-52
2023/12/22 07:52:56;;;;;;;;;;;;;;;;;;5014144;28;19964;-51
2023/12/22 07:55:22;;;;;;;;;;;;;;;;;;5028513;28;19968;-51
2023/12/22 07:57:48;;;;;;;;;;;;;;;;;;5028297;28;20123;-51
2023/12/22 08:00:14;;;;;;;;;;;;;;;;;;5027197;28;20138;-51
2023/12/22 08:02:40;;;;;;;;;;;;;;;;;;5026699;28;20356;-51
2023/12/22 08:05:06;;;;;;;;;;;;;;;;;;5027165;28;20331;-51
2023/12/22 08:07:32;;;;;;;;;;;;;;;;;;5025774;28;19921;-51
2023/12/22 08:09:58;;;;;;;;;;;;;;;;;;5043042;28;19956;-51
2023/12/22 08:12:24;;;;;;;;;;;;;;;;;;5034376;28;19959;-50
2023/12/22 08:14:50;;;;;;;;;;;;;;;;;;5039454;28;19948;-50
2023/12/22 08:17:16;;;;;;;;;;;;;;;;;;5023641;28;20404;-51
2023/12/22 08:19:42;;;;;;;;;;;;;;;;;;5012651;28;19949;-51
2023/12/22 08:22:08;;;;;;;;;;;;;;;;;;5028251;28;19921;-50
2023/12/22 08:24:34;;;;;;;;;;;;;;;;;;5031744;28;19955;-50
2023/12/22 08:27:00;;;;;;;;;;;;;;;;;;5031752;28;19956;-51
2023/12/22 08:29:26;;;;;;;;;;;;;;;;;;5031652;28;19958;-50
2023/12/22 08:31:53;;;;;;;;;;;;;;;;;;5029213;28;19979;-51
2023/12/22 08:34:19;;;;;;;;;;;;;;;;;;5030619;28;19924;-51
2023/12/22 08:36:45;;;;;;;;;;;;;;;;;;5032147;28;20385;-50
2023/12/22 08:39:11;;;;;;;;;;;;;;;;;;5030360;28;19940;-50
2023/12/22 08:41:37;;;;;;;;;;;;;;;;;;5030138;28;20199;-51
2023/12/22 08:44:03;;;;;;;;;;;;;;;;;;5027854;28;20252;-50
2023/12/22 08:46:30;;;;;;;;;;;;;;;;;;5030623;28;19964;-51
2023/12/22 08:48:56;;;;;;;;;;;;;;;;;;5034403;28;19925;-54
2023/12/22 08:51:22;;;;;;;;;;;;;;;;;;5034414;28;19964;-54
2023/12/22 08:53:50;;;;;;;;;;;;;;;;;;5030194;28;20081;-53
2023/12/22 08:56:17;;;;;;;;;;;;;;;;;;5020131;28;20558;-54
2023/12/22 08:58:43;;;;;;;;;;;;;;;;;;5028861;28;19960;-55
2023/12/22 09:01:09;;;;;;;;;;;;;;;;;;5030051;28;19956;-54
2023/12/22 09:03:35;;;;;;;;;;;;;;;;;;5029697;28;20273;-55
2023/12/22 09:06:01;;;;;;;;;;;;;;;;;;5012379;28;19914;-55
2023/12/22 09:08:27;;;;;;;;;;;;;;;;;;5029938;28;20447;-54
2023/12/22 09:10:54;;;;;;;;;;;;;;;;;;5013519;28;19984;-53
2023/12/22 09:13:20;;;;;;;;;;;;;;;;;;5030798;28;19944;-54
2023/12/22 09:15:48;;;;;;;;;;;;;;;;;;5030118;28;19921;-54
2023/12/22 09:18:14;;;;;;;;;;;;;;;;;;5028915;28;19917;-53
2023/12/22 09:20:40;;;;;;;;;;;;;;;;;;5030187;28;19932;-54
2023/12/22 09:23:08;;;;;;;;;;;;;;;;;;5031094;28;19921;-54
2023/12/22 09:25:33;;;;;;;;;;;;;;;;;;5031657;28;19921;-54
2023/12/22 09:27:59;;;;;;;;;;;;;;;;;;5030249;28;19923;-54
2023/12/22 09:30:25;;;;;;;;;;;;;;;;;;5030557;28;19975;-55
2023/12/22 09:32:52;;;;;;;;;;;;;;;;;;5027942;28;19949;-55
2023/12/22 09:35:18;;;;;;;;;;;;;;;;;;5019565;28;19983;-56
2023/12/22 09:37:44;;;;;;;;;;;;;;;;;;5031344;28;20375;-58
2023/12/22 09:40:10;;;;;;;;;;;;;;;;;;5012881;28;19979;-55
2023/12/22 09:42:36;;;;;;;;;;;;;;;;;;5029783;28;19929;-55
2023/12/22 09:45:03;;;;;;;;;;;;;;;;;;5024371;28;19913;-56
2023/12/22 09:47:30;;;;;;;;;;;;;;;;;;5025975;28;20321;-56
2023/12/22 09:49:56;;;;;;;;;;;;;;;;;;5025440;28;19921;-59
2023/12/22 09:52:22;;;;;;;;;;;;;;;;;;5027739;28;20207;-56
2023/12/22 09:54:48;;;;;;;;;;;;;;;;;;5017635;28;19964;-56
2023/12/22 09:57:14;;;;;;;;;;;;;;;;;;5027196;28;20317;-56
2023/12/22 09:59:39;;;;;;;;;;;;;;;;;;5027600;28;20376;-53
2023/12/22 10:02:05;;;;;;;;;;;;;;;;;;5027937;28;19956;-56
2023/12/22 10:04:31;;;;;;;;;;;;;;;;;;5028981;28;21674;-53
2023/12/22 10:06:57;;;;;;;;;;;;;;;;;;5023609;28;20427;-53
2023/12/22 10:09:23;;;;;;;;;;;;;;;;;;5030474;28;20009;-53
2023/12/22 10:11:49;;;;;;;;;;;;;;;;;;5028754;28;19964;-53
2023/12/22 10:14:21;;;;;;;;;;;;;;;;;;5025560;28;19968;-53
2023/12/22 10:16:47;;;;;;;;;;;;;;;;;;5028373;28;19931;-53
2023/12/22 10:19:13;;;;;;;;;;;;;;;;;;5024212;28;20023;-53
2023/12/22 10:21:39;;;;;;;;;;;;;;;;;;5030086;28;19941;-53
2023/12/22 10:24:05;;;;;;;;;;;;;;;;;;5024597;28;20362;-53
2023/12/22 10:26:31;;;;;;;;;;;;;;;;;;5028777;28;20339;-53
2023/12/22 10:28:57;;;;;;;;;;;;;;;;;;5029778;28;20360;-53
2023/12/22 10:31:23;;;;;;;;;;;;;;;;;;5029825;28;19917;-53
2023/12/22 10:33:49;;;;;;;;;;;;;;;;;;5025238;28;20053;-54
2023/12/22 10:36:15;;;;;;;;;;;;;;;;;;5030335;28;19948;-53
2023/12/22 10:38:42;;;;;;;;;;;;;;;;;;5030052;28;19943;-54
2023/12/22 10:41:08;;;;;;;;;;;;;;;;;;5028246;28;19920;-54
2023/12/22 10:43:34;;;;;;;;;;;;;;;;;;5028841;28;19968;-56
2023/12/22 10:46:01;;;;;;;;;;;;;;;;;;5026299;28;19924;-54
2023/12/22 10:48:27;;;;;;;;;;;;;;;;;;5027900;28;20376;-54
2023/12/22 10:50:53;;;;;;;;;;;;;;;;;;5029499;28;20058;-54
2023/12/22 10:53:21;;;;;;;;;;;;;;;;;;5029800;28;19949;-54
2023/12/22 10:55:50;;;;;;;;;;;;;;;;;;5029357;28;19913;-54
2023/12/22 10:58:16;;;;;;;;;;;;;;;;;;5029135;28;19913;-54
2023/12/22 11:00:42;;;;;;;;;;;;;;;;;;5029285;28;19960;-53
2023/12/22 11:03:10;;;;;;;;;;;;;;;;;;5023819;28;19937;-54
2023/12/22 11:05:36;;;;;;;;;;;;;;;;;;5015390;28;20020;-54
2023/12/22 11:08:02;;;;;;;;;;;;;;;;;;5022247;28;20107;-51
2023/12/22 11:10:28;;;;;;;;;;;;;;;;;;5026658;28;20388;-52
2023/12/22 11:12:54;;;;;;;;;;;;;;;;;;5025014;28;19979;-51
2023/12/22 11:15:20;;;;;;;;;;;;;;;;;;5023957;28;20000;-51
2023/12/22 11:17:48;;;;;;;;;;;;;;;;;;5026444;28;20653;-52
2023/12/22 11:20:14;;;;;;;;;;;;;;;;;;5026928;28;19986;-54
2023/12/22 11:22:40;;;;;;;;;;;;;;;;;;5010533;28;19953;-52
2023/12/22 11:25:05;;;;;;;;;;;;;;;;;;5027225;28;19955;-52
2023/12/22 11:27:32;;;;;;;;;;;;;;;;;;5027568;28;19956;-52
2023/12/22 11:29:58;;;;;;;;;;;;;;;;;;5028780;28;20420;-52
2023/12/22 11:32:24;;;;;;;;;;;;;;;;;;5023658;28;19923;-52
2023/12/22 11:34:50;;;;;;;;;;;;;;;;;;5027592;28;20058;-52
2023/12/22 11:37:16;;;;;;;;;;;;;;;;;;5023542;28;19956;-52
2023/12/22 11:39:42;;;;;;;;;;;;;;;;;;5029225;28;19968;-52
2023/12/22 11:42:08;;;;;;;;;;;;;;;;;;5021357;28;20292;-51
2023/12/22 11:44:34;;;;;;;;;;;;;;;;;;5025593;28;19925;-52
2023/12/22 11:46:59;;;;;;;;;;;;;;;;;;5022724;28;19920;-52
2023/12/22 11:49:25;;;;;;;;;;;;;;;;;;5023498;28;20333;-56
2023/12/22 11:51:51;;;;;;;;;;;;;;;;;;5022899;28;19960;-54
2023/12/22 11:54:17;;;;;;;;;;;;;;;;;;5026358;28;19948;-55
2023/12/22 11:56:43;;;;;;;;;;;;;;;;;;5026222;28;19975;-55
2023/12/22 11:59:09;;;;;;;;;;;;;;;;;;5032250;28;20061;-56
2023/12/22 12:01:35;;;;;;;;;;;;;;;;;;5033892;28;20289;-56
2023/12/22 12:04:05;;;;;;;;;;;;;;;;;;5030528;28;19949;-55
2023/12/22 12:06:32;;;;;;;;;;;;;;;;;;5033911;28;19924;-55
2023/12/22 12:08:58;;;;;;;;;;;;;;;;;;5030397;28;19967;-55
2023/12/22 12:11:23;;;;;;;;;;;;;;;;;;5030982;28;20337;-56
2023/12/22 12:13:49;;;;;;;;;;;;;;;;;;5030188;28;20369;-55
2023/12/22 12:16:16;;;;;;;;;;;;;;;;;;5029772;28;19968;-54
2023/12/22 12:18:42;;;;;;;;;;;;;;;;;;5028692;28;20056;-57
2023/12/22 12:21:08;;;;;;;;;;;;;;;;;;5029538;28;20373;-57
2023/12/22 12:23:34;;;;;;;;;;;;;;;;;;5027916;28;20310;-56
2023/12/22 12:26:00;;;;;;;;;;;;;;;;;;5030131;28;19956;-56
2023/12/22 12:28:27;;;;;;;;;;;;;;;;;;5031193;28;19998;-57
2023/12/22 12:30:52;;;;;;;;;;;;;;;;;;5039828;28;19916;-56
2023/12/22 12:33:19;;;;;;;;;;;;;;;;;;5031831;28;20307;-55
2023/12/22 12:35:45;;;;;;;;;;;;;;;;;;5029984;28;20262;-56
2023/12/22 12:38:11;;;;;;;;;;;;;;;;;;5032941;28;19972;-56
2023/12/22 12:40:37;;;;;;;;;;;;;;;;;;5033516;28;19956;-55
2023/12/22 12:43:03;;;;;;;;;;;;;;;;;;5028809;28;19953;-56
2023/12/22 12:45:29;;;;;;;;;;;;;;;;;;5031946;28;20172;-56
2023/12/22 12:47:55;;;;;;;;;;;;;;;;;;5024162;28;20300;-56
2023/12/22 12:50:21;;;;;;;;;;;;;;;;;;5033687;28;19924;-56
2023/12/22 12:52:47;;;;;;;;;;;;;;;;;;5028930;28;20001;-56
2023/12/22 12:55:13;;;;;;;;;;;;;;;;;;5023484;28;19968;-55
2023/12/22 12:57:39;;;;;;;;;;;;;;;;;;5024284;28;19920;-54
2023/12/22 13:00:05;;;;;;;;;;;;;;;;;;5024658;28;20508;-55
2023/12/22 13:02:31;;;;;;;;;;;;;;;;;;5032915;28;19915;-54
2023/12/22 13:04:57;;;;;;;;;;;;;;;;;;5032552;28;19919;-54
2023/12/22 13:07:23;;;;;;;;;;;;;;;;;;5032823;28;19990;-55
2023/12/22 13:09:49;;;;;;;;;;;;;;;;;;5027289;28;20282;-55
2023/12/22 13:12:15;;;;;;;;;;;;;;;;;;5017350;28;19920;-55
2023/12/22 13:14:41;;;;;;;;;;;;;;;;;;5017000;28;19913;-56
2023/12/22 13:17:07;;;;;;;;;;;;;;;;;;5028644;28;20658;-56
2023/12/22 13:19:33;;;;;;;;;;;;;;;;;;5030183;28;19917;-55
2023/12/22 13:22:00;;;;;;;;;;;;;;;;;;5025004;28;19955;-54
2023/12/22 13:24:27;;;;;;;;;;;;;;;;;;5028901;28;20526;-55
2023/12/22 13:26:53;;;;;;;;;;;;;;;;;;5026758;28;20146;-58
2023/12/22 13:29:19;;;;;;;;;;;;;;;;;;5023235;28;20364;-59
2023/12/22 13:31:45;;;;;;;;;;;;;;;;;;5028316;28;19940;-59
2023/12/22 13:34:11;;;;;;;;;;;;;;;;;;5023824;28;19983;-59
2023/12/22 13:36:37;;;;;;;;;;;;;;;;;;5027574;28;20055;-58
2023/12/22 13:39:04;;;;;;;;;;;;;;;;;;5025413;28;19952;-59
2023/12/22 13:41:30;;;;;;;;;;;;;;;;;;5022325;28;20257;-58
2023/12/22 13:43:57;;;;;;;;;;;;;;;;;;5026870;28;19960;-59
2023/12/22 13:46:23;;;;;;;;;;;;;;;;;;5025204;28;20028;-59
2023/12/22 13:48:49;;;;;;;;;;;;;;;;;;5022586;28;20288;-58
2023/12/22 13:51:18;;;;;;;;;;;;;;;;;;5026216;28;20391;-60
2023/12/22 13:53:44;;;;;;;;;;;;;;;;;;5022843;28;19939;-58
2023/12/22 13:56:09;;;;;;;;;;;;;;;;;;5027650;28;20419;-59
2023/12/22 13:58:35;;;;;;;;;;;;;;;;;;5030392;28;19919;-58
2023/12/22 14:01:01;;;;;;;;;;;;;;;;;;5030178;28;19917;-59
2023/12/22 14:03:27;;;;;;;;;;;;;;;;;;5029043;28;20448;-59
2023/12/22 14:05:53;;;;;;;;;;;;;;;;;;5030512;28;19924;-59
2023/12/22 14:08:19;;;;;;;;;;;;;;;;;;5033989;28;19923;-59
2023/12/22 14:10:46;;;;;;;;;;;;;;;;;;5029755;28;19960;-58
2023/12/22 14:13:12;;;;;;;;;;;;;;;;;;5030537;28;20445;-59
2023/12/22 14:15:38;;;;;;;;;;;;;;;;;;5029961;28;20395;-59
2023/12/22 14:18:03;;;;;;;;;;;;;;;;;;5028524;28;19990;-58
2023/12/22 14:20:29;;;;;;;;;;;;;;;;;;5029625;28;19959;-58
2023/12/22 14:22:55;;;;;;;;;;;;;;;;;;5030265;28;19948;-59
2023/12/22 14:25:21;;;;;;;;;;;;;;;;;;5029560;28;19955;-59
2023/12/22 14:27:47;;;;;;;;;;;;;;;;;;5030097;28;19955;-59
2023/12/22 14:30:13;;;;;;;;;;;;;;;;;;5028680;28;19967;-59
2023/12/22 14:32:39;;;;;;;;;;;;;;;;;;5028091;28;19956;-58
2023/12/22 14:35:05;;;;;;;;;;;;;;;;;;5030234;28;19956;-59
2023/12/22 14:37:31;;;;;;;;;;;;;;;;;;5030176;28;20331;-55
2023/12/22 14:39:57;;;;;;;;;;;;;;;;;;5029291;28;20380;-56
2023/12/22 14:42:23;;;;;;;;;;;;;;;;;;5029576;28;19964;-55
2023/12/22 14:44:49;;;;;;;;;;;;;;;;;;5012125;28;19944;-55
2023/12/22 14:47:15;;;;;;;;;;;;;;;;;;5011518;28;19999;-55
2023/12/22 14:49:41;;;;;;;;;;;;;;;;;;5029186;28;19916;-55
2023/12/22 14:52:08;;;;;;;;;;;;;;;;;;5029278;28;19999;-55
2023/12/22 14:54:34;;;;;;;;;;;;;;;;;;5029511;28;19917;-56
2023/12/22 14:57:00;;;;;;;;;;;;;;;;;;5029138;28;19912;-56
2023/12/22 14:59:26;;;;;;;;;;;;;;;;;;5029247;28;19915;-57
2023/12/22 15:01:52;;;;;;;;;;;;;;;;;;5010498;28;20357;-55
2023/12/22 15:04:20;;;;;;;;;;;;;;;;;;5028212;28;20386;-55
2023/12/22 15:06:46;;;;;;;;;;;;;;;;;;5029048;28;20254;-55
2023/12/22 15:09:12;;;;;;;;;;;;;;;;;;5028824;28;19948;-57
2023/12/22 15:11:38;;;;;;;;;;;;;;;;;;5029503;28;20326;-56
2023/12/22 15:14:04;;;;;;;;;;;;;;;;;;5029070;28;19925;-56
2023/12/22 15:16:30;;;;;;;;;;;;;;;;;;5028715;28;20378;-56
2023/12/22 15:18:55;;;;;;;;;;;;;;;;;;5027802;28;19956;-55
2023/12/22 15:21:22;;;;;;;;;;;;;;;;;;5028692;28;19948;-56
2023/12/22 15:23:47;;;;;;;;;;;;;;;;;;5029242;28;19912;-56
2023/12/22 15:26:13;;;;;;;;;;;;;;;;;;5029035;28;19960;-55
2023/12/22 15:28:39;;;;;;;;;;;;;;;;;;5028436;28;19952;-55
2023/12/22 15:31:05;;;;;;;;;;;;;;;;;;5013801;28;20456;-56
2023/12/22 15:33:31;;;;;;;;;;;;;;;;;;5027869;28;20653;-56
2023/12/22 15:35:57;;;;;;;;;;;;;;;;;;5029271;28;19952;-56
2023/12/22 15:38:23;;;;;;;;;;;;;;;;;;5028326;28;19956;-55
2023/12/22 15:40:49;;;;;;;;;;;;;;;;;;5028761;28;20512;-55
2023/12/22 15:43:15;;;;;;;;;;;;;;;;;;5024520;28;20004;-55
2023/12/22 15:45:41;;;;;;;;;;;;;;;;;;5008832;28;19943;-55
2023/12/22 15:48:07;;;;;;;;;;;;;;;;;;5022637;28;19937;-55
2023/12/22 15:50:33;;;;;;;;;;;;;;;;;;5028720;28;19957;-54
2023/12/22 15:52:59;;;;;;;;;;;;;;;;;;5028692;28;19963;-54
2023/12/22 15:55:25;;;;;;;;;;;;;;;;;;5028072;28;19948;-56
2023/12/22 15:57:50;;;;;;;;;;;;;;;;;;5029212;28;19964;-55
2023/12/22 16:00:16;;;;;;;;;;;;;;;;;;5028422;28;20363;-55
2023/12/22 16:02:42;;;;;;;;;;;;;;;;;;5027696;28;19945;-55
2023/12/22 16:05:10;;;;;;;;;;;;;;;;;;5027725;28;19969;-55
2023/12/22 16:07:36;;;;;;;;;;;;;;;;;;5028544;28;19909;-56
2023/12/22 16:10:02;;;;;;;;;;;;;;;;;;5028850;28;19955;-55
2023/12/22 16:12:28;;;;;;;;;;;;;;;;;;5027974;28;19964;-55
2023/12/22 16:14:54;;;;;;;;;;;;;;;;;;5028198;28;20051;-55
2023/12/22 16:17:21;;;;;;;;;;;;;;;;;;5027376;28;19952;-56
2023/12/22 16:19:46;;;;;;;;;;;;;;;;;;5028187;28;19920;-56
2023/12/22 16:22:12;;;;;;;;;;;;;;;;;;5028461;28;19905;-55
2023/12/22 16:24:39;;;;;;;;;;;;;;;;;;5028816;28;20071;-56
2023/12/22 16:27:05;;;;;;;;;;;;;;;;;;5028960;28;19924;-56
2023/12/22 16:29:31;;;;;;;;;;;;;;;;;;5027886;28;20408;-55
2023/12/22 16:31:57;;;;;;;;;;;;;;;;;;5027459;28;20502;-56
2023/12/22 16:34:23;;;;;;;;;;;;;;;;;;5027448;28;19955;-55
2023/12/22 16:36:49;;;;;;;;;;;;;;;;;;5028721;28;19948;-55